createdAt,value
2023-03-14T00:00:48.690Z,98800.78
2023-03-14T00:02:53.168Z,98797.75
2023-03-14T00:04:55.647Z,98811.59
2023-03-14T00:06:57.219Z,98809.13
2023-03-14T00:08:58.792Z,98815.13
2023-03-14T00:11:05.725Z,98819.72
2023-03-14T00:13:07.496Z,98808.56
2023-03-14T00:15:09.981Z,98813.97
2023-03-14T00:17:13.054Z,98807.09
2023-03-14T00:19:14.845Z,98806.63
2023-03-14T00:21:16.527Z,98808.69
2023-03-14T00:23:18.126Z,98801.88
2023-03-14T00:25:19.892Z,98803.25
2023-03-14T00:27:21.515Z,98807.53
2023-03-14T00:29:23.413Z,98810.91
2023-03-14T00:31:24.940Z,98803.91
2023-03-14T00:33:27.871Z,98785.88
2023-03-14T00:35:29.460Z,98791.28
2023-03-14T00:37:31.009Z,98791.75
2023-03-14T00:39:32.564Z,98796.34
2023-03-14T00:41:34.256Z,98792.41
2023-03-14T00:43:36.117Z,98794.78
2023-03-14T00:45:37.705Z,98781.94
2023-03-14T00:47:39.275Z,98784.75
2023-03-14T00:49:42.215Z,98783.16
2023-03-14T00:51:44.190Z,98779.88
2023-03-14T00:53:45.843Z,98771.75
2023-03-14T00:55:47.636Z,98775.81
2023-03-14T00:57:49.237Z,98776.06
2023-03-14T00:59:51.900Z,98769.63
2023-03-14T01:01:53.479Z,98779.41
2023-03-14T01:03:56.204Z,98778.88
2023-03-14T01:06:10.116Z,98780.34
2023-03-14T01:08:11.994Z,98784.75
2023-03-14T01:10:13.833Z,98780.56
2023-03-14T01:12:15.545Z,98779.56
2023-03-14T01:14:17.314Z,98787.22
2023-03-14T01:16:20.702Z,98795.03
2023-03-14T01:18:22.331Z,98784.09
2023-03-14T01:20:23.899Z,98779.91
2023-03-14T01:22:26.982Z,98776.75
2023-03-14T01:24:28.551Z,98770.78
2023-03-14T01:26:32.423Z,98761.88
2023-03-14T01:28:34.068Z,98767.88
2023-03-14T01:30:35.703Z,98765.91
2023-03-14T01:32:37.879Z,98755.09
2023-03-14T01:34:39.782Z,98751.50
2023-03-14T01:36:41.386Z,98746.22
2023-03-14T01:38:44.574Z,98756.44
2023-03-14T01:40:46.182Z,98755.47
2023-03-14T01:42:54.783Z,98747.53
2023-03-14T01:44:58.245Z,98741.94
2023-03-14T01:46:59.817Z,98732.53
2023-03-14T01:49:07.159Z,98730.94
2023-03-14T01:51:15.358Z,98738.09
2023-03-14T01:53:17.701Z,98734.81
2023-03-14T01:55:25.420Z,98728.59
2023-03-14T01:57:31.132Z,98722.53
2023-03-14T01:59:35.353Z,98719.81
2023-03-14T02:01:39.000Z,98709.19
2023-03-14T02:03:48.226Z,98700.53
2023-03-14T02:05:51.431Z,98696.56
2023-03-14T02:07:55.331Z,98697.81
2023-03-14T02:09:59.785Z,98695.31
2023-03-14T02:12:02.865Z,98694.19
2023-03-14T02:14:04.843Z,98690.50
2023-03-14T02:16:07.566Z,98690.78
2023-03-14T02:18:10.834Z,98676.94
2023-03-14T02:20:25.592Z,98679.97
2023-03-14T02:22:27.217Z,98684.50
2023-03-14T02:24:35.841Z,98668.38
2023-03-14T02:26:42.662Z,98663.81
2023-03-14T02:28:45.745Z,98670.13
2023-03-14T02:30:47.682Z,98676.81
2023-03-14T02:32:52.678Z,98681.81
2023-03-14T02:34:57.305Z,98657.00
2023-03-14T02:36:59.812Z,98662.72
2023-03-14T02:39:11.783Z,98671.09
2023-03-14T02:41:13.965Z,98674.34
2023-03-14T02:43:15.508Z,98655.84
2023-03-14T02:45:43.831Z,98653.25
2023-03-14T02:47:49.927Z,98661.59
2023-03-14T02:49:55.336Z,98653.28
2023-03-14T02:51:56.900Z,98647.75
2023-03-14T02:53:58.632Z,98659.91
2023-03-14T02:56:00.888Z,98656.53
2023-03-14T02:58:02.436Z,98652.94
2023-03-14T03:00:05.466Z,98653.59
2023-03-14T03:02:08.388Z,98664.75
2023-03-14T03:04:09.949Z,98664.88
2023-03-14T03:06:11.525Z,98651.91
2023-03-14T03:08:13.086Z,98658.13
2023-03-14T03:10:14.963Z,98645.72
2023-03-14T03:12:16.635Z,98657.09
2023-03-14T03:14:18.185Z,98655.06
2023-03-14T03:16:19.833Z,98651.81
2023-03-14T03:18:22.767Z,98644.94
2023-03-14T03:20:24.361Z,98634.78
2023-03-14T03:22:26.010Z,98627.78
2023-03-14T03:24:27.760Z,98622.84
2023-03-14T03:26:29.276Z,98618.41
2023-03-14T03:28:30.876Z,98611.56
2023-03-14T03:30:32.456Z,98616.63
2023-03-14T03:32:34.160Z,98607.72
2023-03-14T03:34:37.527Z,98604.75
2023-03-14T03:36:39.066Z,98591.34
2023-03-14T03:38:40.559Z,98586.94
2023-03-14T03:40:43.492Z,98584.59
2023-03-14T03:42:45.027Z,98591.22
2023-03-14T03:44:46.560Z,98581.44
2023-03-14T03:46:48.216Z,98573.88
2023-03-14T03:48:49.892Z,98580.97
2023-03-14T03:50:52.924Z,98573.75
2023-03-14T03:52:54.509Z,98557.59
2023-03-14T03:54:56.069Z,98564.75
2023-03-14T03:56:57.626Z,98571.06
2023-03-14T03:58:59.191Z,98565.66
2023-03-14T04:01:00.757Z,98576.28
2023-03-14T04:03:02.538Z,98578.53
2023-03-14T04:05:04.393Z,98572.34
2023-03-14T04:07:07.459Z,98571.50
2023-03-14T04:09:09.125Z,98581.84
2023-03-14T04:11:11.549Z,98583.53
2023-03-14T04:13:13.066Z,98584.09
2023-03-14T04:15:14.995Z,98581.97
2023-03-14T04:17:16.768Z,98580.34
2023-03-14T04:19:18.315Z,98592.84
2023-03-14T04:21:20.109Z,98579.31
2023-03-14T04:23:24.317Z,98575.94
2023-03-14T04:25:25.885Z,98568.50
2023-03-14T04:27:27.415Z,98569.34
2023-03-14T04:29:28.994Z,98555.56
2023-03-14T04:31:30.617Z,98562.53
2023-03-14T04:33:32.162Z,98561.31
2023-03-14T04:35:34.429Z,98556.00
2023-03-14T04:37:36.419Z,98548.69
2023-03-14T04:39:39.785Z,98561.22
2023-03-14T04:41:41.407Z,98554.91
2023-03-14T04:43:42.968Z,98553.78
2023-03-14T04:45:44.499Z,98558.41
2023-03-14T04:47:46.064Z,98559.06
2023-03-14T04:49:47.602Z,98555.03
2023-03-14T04:51:49.330Z,98547.09
2023-03-14T04:53:50.959Z,98553.78
2023-03-14T04:55:56.129Z,98539.38
2023-03-14T04:57:57.733Z,98533.28
2023-03-14T04:59:59.312Z,98537.81
2023-03-14T05:02:00.968Z,98543.13
2023-03-14T05:04:07.191Z,98543.91
2023-03-14T05:06:16.776Z,98543.31
2023-03-14T05:08:21.128Z,98533.56
2023-03-14T05:10:25.528Z,98535.78
2023-03-14T05:12:31.516Z,98537.25
2023-03-14T05:14:36.111Z,98523.63
2023-03-14T05:16:40.594Z,98531.94
2023-03-14T05:18:51.778Z,98536.47
2023-03-14T05:21:30.272Z,98531.03
2023-03-14T05:23:34.687Z,98533.84
2023-03-14T05:25:39.164Z,98527.31
2023-03-14T05:27:59.790Z,98537.34
2023-03-14T05:30:01.727Z,98542.03
2023-03-14T05:32:06.187Z,98528.81
2023-03-14T05:37:13.146Z,98531.75
2023-03-14T05:39:18.177Z,98527.31
2023-03-14T05:41:19.747Z,98528.78
2023-03-14T05:43:33.458Z,98527.84
2023-03-14T05:45:47.165Z,98521.56
2023-03-14T05:48:41.139Z,98529.47
2023-03-14T05:51:01.297Z,98535.59
2023-03-14T05:53:12.025Z,98526.47
2023-03-14T05:55:56.821Z,98519.69
2023-03-14T05:58:08.655Z,98522.84
2023-03-14T06:00:18.239Z,98515.72
2023-03-14T06:04:59.651Z,98510.66
2023-03-14T06:07:03.870Z,98514.91
2023-03-14T06:09:29.824Z,98513.69
2023-03-14T06:11:48.749Z,98525.00
2023-03-14T06:14:18.071Z,98511.25
2023-03-14T06:16:36.888Z,98508.88
2023-03-14T06:18:39.250Z,98518.34
2023-03-14T06:21:23.897Z,98509.88
2023-03-14T06:26:39.931Z,98505.25
2023-03-14T06:28:59.465Z,98509.09
2023-03-14T06:31:25.956Z,98510.56
2023-03-14T06:33:28.858Z,98500.44
2023-03-14T06:39:01.559Z,98500.97
2023-03-14T06:47:19.182Z,98519.59
2023-03-14T06:50:07.926Z,98514.19
2023-03-14T06:52:05.474Z,98513.41
2023-03-14T06:54:10.497Z,98500.13
2023-03-14T06:56:18.228Z,98501.34
2023-03-14T06:58:57.022Z,98495.63
2023-03-14T07:01:21.081Z,98491.66
2023-03-14T07:03:54.396Z,98498.81
2023-03-14T07:06:17.024Z,98496.88
2023-03-14T07:08:27.938Z,98491.13
2023-03-14T07:10:29.523Z,98502.47
2023-03-14T07:12:37.068Z,98500.00
2023-03-14T07:14:45.557Z,98501.66
2023-03-14T07:16:50.018Z,98490.38
2023-03-14T07:19:06.358Z,98502.88
2023-03-14T07:26:11.666Z,98495.88
2023-03-14T07:28:16.164Z,98498.34
2023-03-14T07:30:52.778Z,98503.50
2023-03-14T07:32:54.424Z,98512.19
2023-03-14T07:35:41.728Z,98506.53
2023-03-14T07:38:15.514Z,98509.81
2023-03-14T07:40:27.506Z,98509.69
2023-03-14T07:42:52.013Z,98507.97
2023-03-14T07:47:18.241Z,98507.06
2023-03-14T07:49:28.891Z,98492.06
2023-03-14T07:51:33.769Z,98487.53
2023-03-14T07:53:51.799Z,98497.47
2023-03-14T07:55:56.085Z,98487.53
2023-03-14T08:01:03.562Z,98499.34
2023-03-14T08:03:05.176Z,98488.41
2023-03-14T08:05:40.410Z,98501.50
2023-03-14T08:07:42.561Z,98507.97
2023-03-14T08:09:49.897Z,98504.44
2023-03-14T08:12:40.395Z,98515.53
2023-03-14T08:17:00.571Z,98511.09
2023-03-14T08:19:05.165Z,98504.41
2023-03-14T08:21:10.055Z,98531.69
2023-03-14T08:23:26.653Z,98521.97
2023-03-14T08:25:44.940Z,98518.72
2023-03-14T08:28:20.474Z,98514.50
2023-03-14T08:30:23.174Z,98522.50
2023-03-14T08:32:25.057Z,98520.25
2023-03-14T08:34:41.171Z,98526.66
2023-03-14T08:37:19.637Z,98529.94
2023-03-14T08:39:36.285Z,98529.19
2023-03-14T08:42:05.191Z,98545.88
2023-03-14T08:44:07.436Z,98542.16
2023-03-14T08:46:11.774Z,98542.50
2023-03-14T08:48:19.146Z,98550.03
2023-03-14T08:52:57.584Z,98548.66
2023-03-14T08:54:59.291Z,98551.19
2023-03-14T08:57:02.238Z,98553.56
2023-03-14T08:59:22.358Z,98554.63
2023-03-14T09:01:45.443Z,98540.34
2023-03-14T09:03:50.354Z,98542.91
2023-03-14T09:06:10.985Z,98547.16
2023-03-14T09:08:15.173Z,98552.06
2023-03-14T09:10:17.237Z,98552.75
2023-03-14T09:15:29.289Z,98557.47
2023-03-14T09:17:37.171Z,98549.19
2023-03-14T09:19:47.944Z,98541.25
2023-03-14T09:22:20.328Z,98535.66
2023-03-14T09:24:49.006Z,98543.63
2023-03-14T09:26:50.597Z,98548.25
2023-03-14T09:28:52.148Z,98547.09
2023-03-14T09:31:16.867Z,98548.75
2023-03-14T09:33:19.070Z,98551.47
2023-03-14T09:35:20.653Z,98557.50
2023-03-14T09:37:31.250Z,98550.78
2023-03-14T09:39:52.308Z,98550.50
2023-03-14T09:42:25.986Z,98552.97
2023-03-14T09:49:52.831Z,98538.63
2023-03-14T09:54:13.214Z,98548.41
2023-03-14T09:55:38.471Z,98543.81
2023-03-14T10:00:39.836Z,98542.50
2023-03-14T10:03:32.904Z,98544.88
2023-03-14T10:05:48.409Z,98553.50
2023-03-14T10:08:06.029Z,98553.34
2023-03-14T10:10:12.062Z,98554.88
2023-03-14T10:12:20.225Z,98553.97
2023-03-14T10:15:16.314Z,98550.63
2023-03-14T10:17:43.403Z,98553.59
2023-03-14T10:19:59.196Z,98552.03
2023-03-14T10:24:56.230Z,98548.88
2023-03-14T10:27:19.751Z,98583.75
2023-03-14T10:30:03.512Z,98554.28
2023-03-14T10:32:20.335Z,98554.88
2023-03-14T10:34:30.807Z,98550.44
2023-03-14T10:37:27.452Z,98558.25
2023-03-14T10:39:56.579Z,98548.69
2023-03-14T10:42:26.181Z,98550.34
2023-03-14T10:45:10.377Z,98552.00
2023-03-14T10:47:31.860Z,98557.50
2023-03-14T10:53:01.380Z,98565.47
2023-03-14T10:55:40.706Z,98573.28
2023-03-14T10:57:48.338Z,98550.66
2023-03-14T10:59:50.948Z,98553.97
2023-03-14T11:02:40.173Z,98556.25
2023-03-14T11:05:45.119Z,98574.25
2023-03-14T11:11:24.740Z,98570.56
2023-03-14T11:13:55.237Z,98574.53
2023-03-14T11:16:25.017Z,98575.19
2023-03-14T11:24:26.780Z,98583.84
2023-03-14T11:26:59.954Z,98585.97
2023-03-14T11:30:00.267Z,98596.16
2023-03-14T11:32:08.874Z,98601.09
2023-03-14T11:35:02.437Z,98598.88
2023-03-14T11:37:36.712Z,98605.59
2023-03-14T11:40:19.125Z,98612.50
2023-03-14T11:44:54.653Z,98612.94
2023-03-14T11:50:39.569Z,98619.13
2023-03-14T11:55:41.568Z,98645.28
2023-03-14T11:59:00.859Z,98651.16
2023-03-14T12:47:36.996Z,98857.84
2023-03-14T12:50:08.285Z,98864.84
2023-03-14T12:52:15.636Z,98884.59
2023-03-14T12:54:34.760Z,98891.69
2023-03-14T12:56:46.535Z,98898.38
2023-03-14T12:59:06.793Z,98888.78
2023-03-14T13:01:17.759Z,98899.34
2023-03-14T13:03:22.076Z,98913.16
2023-03-14T13:05:26.810Z,98922.63
2023-03-14T13:07:35.079Z,98935.13
2023-03-14T13:09:54.977Z,98944.41
2023-03-14T13:12:02.663Z,98952.53
2023-03-14T13:14:11.110Z,98960.97
2023-03-14T13:16:17.567Z,98975.16
2023-03-14T13:18:27.167Z,98980.81
2023-03-14T13:20:34.635Z,98988.94
2023-03-14T13:22:36.212Z,99007.88
2023-03-14T13:24:37.764Z,99003.13
2023-03-14T13:26:43.526Z,99012.19
2023-03-14T13:28:45.194Z,99013.31
2023-03-14T13:30:48.810Z,99017.63
2023-03-14T13:32:52.198Z,99032.63
2023-03-14T13:34:57.509Z,99033.91
2023-03-14T13:37:00.665Z,99041.22
2023-03-14T13:39:03.679Z,99045.06
2023-03-14T13:41:07.688Z,99057.28
2023-03-14T13:43:16.474Z,99047.69
2023-03-14T13:45:20.499Z,99060.56
2023-03-14T13:47:25.275Z,99063.84
2023-03-14T13:49:28.835Z,99068.34
2023-03-14T13:51:31.385Z,99076.13
2023-03-14T13:53:43.915Z,99077.91
2023-03-14T13:55:45.618Z,99087.59
2023-03-14T13:57:48.891Z,99081.69
2023-03-14T14:00:00.926Z,99098.34
2023-03-14T14:02:11.886Z,99118.53
2023-03-14T14:04:19.065Z,99125.03
2023-03-14T14:06:27.433Z,99140.19
2023-03-14T14:08:31.467Z,99145.88
2023-03-14T14:10:38.181Z,99151.94
2023-03-14T14:12:44.810Z,99155.44
2023-03-14T14:14:50.760Z,99156.88
2023-03-14T14:16:53.743Z,99163.44
2023-03-14T14:18:58.023Z,99164.81
2023-03-14T14:20:59.853Z,99172.94
2023-03-14T14:23:03.708Z,99174.94
2023-03-14T14:25:06.680Z,99180.75
2023-03-14T14:27:15.271Z,99186.75
2023-03-14T14:29:26.964Z,99197.78
2023-03-14T14:31:28.673Z,99200.38
2023-03-14T14:33:38.457Z,99210.28
2023-03-14T14:35:40.358Z,99215.78
2023-03-14T14:37:44.537Z,99214.97
2023-03-14T14:39:46.358Z,99222.09
2023-03-14T14:41:50.346Z,99219.97
2023-03-14T14:43:53.579Z,99229.09
2023-03-14T14:45:56.522Z,99240.75
2023-03-14T14:48:04.293Z,99233.44
2023-03-14T14:50:21.828Z,99247.75
2023-03-14T14:52:34.731Z,99253.88
2023-03-14T14:54:39.736Z,99241.47
2023-03-14T14:56:41.471Z,99253.06
2023-03-14T14:58:46.265Z,99256.00
2023-03-14T15:00:55.474Z,99261.13
2023-03-14T15:03:00.911Z,99276.25
2023-03-14T15:05:02.772Z,99268.34
2023-03-14T15:07:04.430Z,99271.22
2023-03-14T15:09:06.581Z,99265.16
2023-03-14T15:11:15.697Z,99286.03
2023-03-14T15:13:17.329Z,99280.16
2023-03-14T15:15:19.332Z,99285.13
2023-03-14T15:17:22.539Z,99281.88
2023-03-14T15:19:26.811Z,99295.94
2023-03-14T15:21:29.352Z,99296.72
2023-03-14T15:23:30.902Z,99290.31
2023-03-14T15:25:53.528Z,99286.03
2023-03-14T15:27:54.033Z,99290.59
2023-03-14T15:29:55.640Z,99291.38
2023-03-14T15:31:57.420Z,99296.69
2023-03-14T15:34:00.373Z,99302.59
2023-03-14T15:36:01.998Z,99305.69
2023-03-14T15:38:04.140Z,99312.22
2023-03-14T15:40:06.979Z,99310.63
2023-03-14T15:42:09.000Z,99313.69
2023-03-14T15:44:10.649Z,99314.28
2023-03-14T15:46:13.370Z,99317.59
2023-03-14T15:48:17.120Z,99318.81
2023-03-14T15:50:20.105Z,99314.47
2023-03-14T15:52:21.649Z,99320.19
2023-03-14T15:54:23.156Z,99315.59
2023-03-14T15:56:24.682Z,99317.09
2023-03-14T15:58:26.350Z,99314.53
2023-03-14T16:00:28.144Z,99325.94
2023-03-14T16:02:30.207Z,99326.94
2023-03-14T16:04:31.801Z,99329.00
2023-03-14T16:06:34.710Z,99328.53
2023-03-14T16:08:36.371Z,99339.19
2023-03-14T16:10:37.927Z,99334.25
2023-03-14T16:12:40.175Z,99339.75
2023-03-14T16:14:41.803Z,99343.06
2023-03-14T16:16:43.383Z,99350.41
2023-03-14T16:18:44.937Z,99347.91
2023-03-14T16:20:52.701Z,99356.34
2023-03-14T16:22:55.596Z,99362.41
2023-03-14T16:24:57.234Z,99363.41
2023-03-14T16:26:59.068Z,99367.69
2023-03-14T16:29:02.038Z,99367.56
2023-03-14T16:31:05.260Z,99365.63
2023-03-14T16:33:11.383Z,99372.03
2023-03-14T16:35:13.676Z,99384.94
2023-03-14T16:37:15.188Z,99380.50
2023-03-14T16:39:18.783Z,99381.28
2023-03-14T16:41:23.181Z,99388.94
2023-03-14T16:43:24.817Z,99391.59
2023-03-14T16:45:26.566Z,99387.97
2023-03-14T16:47:28.078Z,99391.78
2023-03-14T16:49:29.617Z,99401.19
2023-03-14T16:51:33.876Z,99396.44
2023-03-14T16:53:35.846Z,99406.94
2023-03-14T16:55:42.434Z,99418.09
2023-03-14T16:57:44.392Z,99407.91
2023-03-14T16:59:45.907Z,99416.78
2023-03-14T17:01:47.504Z,99413.94
2023-03-14T17:03:50.792Z,99417.59
2023-03-14T17:05:53.004Z,99421.59
2023-03-14T17:07:54.554Z,99428.59
2023-03-14T17:09:56.166Z,99424.31
2023-03-14T17:11:59.085Z,99432.09
2023-03-14T17:14:01.456Z,99443.41
2023-03-14T17:16:04.010Z,99440.38
2023-03-14T17:18:06.328Z,99451.03
2023-03-14T17:20:09.485Z,99456.59
2023-03-14T17:22:23.326Z,99458.19
2023-03-14T17:24:25.714Z,99471.41
2023-03-14T17:26:27.366Z,99472.34
2023-03-14T17:28:30.489Z,99480.47
2023-03-14T17:30:32.109Z,99488.09
2023-03-14T17:32:33.743Z,99481.09
2023-03-14T17:34:35.518Z,99492.25
2023-03-14T17:36:37.121Z,99491.44
2023-03-14T17:38:39.344Z,99490.34
2023-03-14T17:40:40.900Z,99500.53
2023-03-14T17:42:42.723Z,99501.47
2023-03-14T17:44:45.582Z,99504.34
2023-03-14T17:46:47.284Z,99506.25
2023-03-14T17:48:49.209Z,99516.13
2023-03-14T17:50:52.417Z,99519.28
2023-03-14T17:52:54.499Z,99522.66
2023-03-14T17:54:56.044Z,99524.53
2023-03-14T17:56:58.396Z,99529.97
2023-03-14T17:59:00.045Z,99537.28
2023-03-14T18:01:10.633Z,99551.28
2023-03-14T18:03:12.165Z,99554.75
2023-03-14T18:05:13.775Z,99575.00
2023-03-14T18:07:15.464Z,99589.63
2023-03-14T18:09:17.530Z,99604.38
2023-03-14T18:11:19.138Z,99594.34
2023-03-14T18:13:22.000Z,99606.59
2023-03-14T18:15:23.536Z,99616.75
2023-03-14T18:17:26.889Z,99624.84
2023-03-14T18:19:28.551Z,99635.31
2023-03-14T18:21:30.081Z,99629.91
2023-03-14T18:23:31.653Z,99635.66
2023-03-14T18:25:33.300Z,99648.94
2023-03-14T18:27:35.097Z,99652.41
2023-03-14T18:29:37.116Z,99659.22
2023-03-14T18:31:38.698Z,99666.34
2023-03-14T18:33:42.041Z,99670.84
2023-03-14T18:35:43.720Z,99677.03
2023-03-14T18:37:46.209Z,99677.84
2023-03-14T18:39:50.937Z,99688.19
2023-03-14T18:41:52.600Z,99693.16
2023-03-14T18:43:54.519Z,99695.56
2023-03-14T18:45:57.799Z,99699.69
2023-03-14T18:47:59.382Z,99705.38
2023-03-14T18:50:02.647Z,99703.34
2023-03-14T18:52:04.655Z,99710.34
2023-03-14T18:54:09.976Z,99713.38
2023-03-14T18:56:13.718Z,99708.56
2023-03-14T18:58:15.484Z,99711.88
2023-03-14T19:00:17.853Z,99709.31
2023-03-14T19:02:19.460Z,99712.78
2023-03-14T19:04:21.074Z,99722.16
2023-03-14T19:06:27.983Z,99731.06
2023-03-14T19:08:29.685Z,99730.09
2023-03-14T19:10:31.276Z,99744.13
2023-03-14T19:12:32.842Z,99750.88
2023-03-14T19:14:34.659Z,99752.38
2023-03-14T19:16:36.281Z,99761.41
2023-03-14T19:18:37.949Z,99764.06
2023-03-14T19:20:41.085Z,99774.03
2023-03-14T19:22:43.975Z,99777.56
2023-03-14T19:24:45.545Z,99778.38
2023-03-14T19:26:47.261Z,99787.69
2023-03-14T19:28:48.799Z,99787.00
2023-03-14T19:30:51.568Z,99794.19
2023-03-14T19:32:53.399Z,99793.50
2023-03-14T19:34:58.155Z,99802.09
2023-03-14T19:36:59.737Z,99811.47
2023-03-14T19:39:04.385Z,99821.69
2023-03-14T19:41:06.511Z,99825.06
2023-03-14T19:43:08.648Z,99835.25
2023-03-14T19:45:11.233Z,99830.75
2023-03-14T19:47:12.841Z,99830.75
2023-03-14T19:49:14.493Z,99833.97
2023-03-14T19:51:17.006Z,99843.34
2023-03-14T19:53:18.522Z,99850.03
2023-03-14T19:55:21.717Z,99858.06
2023-03-14T19:57:23.233Z,99864.03
2023-03-14T19:59:24.914Z,99866.34
2023-03-14T20:01:26.580Z,99873.72
2023-03-14T20:03:28.208Z,99880.22
2023-03-14T20:05:29.847Z,99891.41
2023-03-14T20:07:31.470Z,99899.88
2023-03-14T20:09:33.074Z,99906.88
2023-03-14T20:11:36.376Z,99914.03
2023-03-14T20:13:38.170Z,99915.41
2023-03-14T20:15:40.239Z,99922.56
2023-03-14T20:17:41.755Z,99925.63
2023-03-14T20:19:43.652Z,99933.84
2023-03-14T20:21:45.269Z,99928.03
2023-03-14T20:23:47.913Z,99933.13
2023-03-14T20:25:56.026Z,99937.41
2023-03-14T20:27:58.990Z,99947.72
2023-03-14T20:30:00.828Z,99949.16
2023-03-14T20:32:04.566Z,99952.00
2023-03-14T20:34:06.346Z,99954.16
2023-03-14T20:36:09.088Z,99961.63
2023-03-14T20:38:10.791Z,99960.34
2023-03-14T20:40:13.011Z,99959.56
2023-03-14T20:42:14.710Z,99962.31
2023-03-14T20:44:17.715Z,99969.13
2023-03-14T20:46:19.433Z,99984.97
2023-03-14T20:48:21.524Z,99995.41
2023-03-14T20:50:23.181Z,100011.84
2023-03-14T20:52:24.826Z,100017.75
2023-03-14T20:54:26.471Z,100022.00
2023-03-14T20:56:28.066Z,100025.28
2023-03-14T20:58:30.030Z,100027.13
2023-03-14T21:00:33.065Z,100035.44
2023-03-14T21:02:34.688Z,100032.25
2023-03-14T21:04:36.393Z,100037.69
2023-03-14T21:06:37.995Z,100028.47
2023-03-14T21:08:39.754Z,100030.66
2023-03-14T21:10:41.393Z,100026.63
2023-03-14T21:12:43.123Z,100029.28
2023-03-14T21:14:44.965Z,100037.59
2023-03-14T21:16:48.351Z,100050.00
2023-03-14T21:18:49.946Z,100055.66
2023-03-14T21:20:53.382Z,100069.34
2023-03-14T21:22:55.275Z,100080.88
2023-03-14T21:24:56.872Z,100092.22
2023-03-14T21:27:00.474Z,100093.03
2023-03-14T21:29:04.516Z,100088.47
2023-03-14T21:31:09.816Z,100087.63
2023-03-14T21:33:12.795Z,100089.72
2023-03-14T21:35:14.566Z,100090.78
2023-03-14T21:37:16.202Z,100095.63
2023-03-14T21:39:17.979Z,100092.91
2023-03-14T21:41:19.666Z,100097.97
2023-03-14T21:43:21.217Z,100097.66
2023-03-14T21:45:24.024Z,100101.16
2023-03-14T21:47:25.599Z,100105.97
2023-03-14T21:49:28.508Z,100106.31
2023-03-14T21:51:30.240Z,100106.84
2023-03-14T21:53:32.044Z,100113.84
2023-03-14T21:55:33.559Z,100124.66
2023-03-14T21:57:35.339Z,100121.22
2023-03-14T21:59:38.337Z,100129.50
2023-03-14T22:01:49.006Z,100121.97
2023-03-14T22:03:50.710Z,100120.84
2023-03-14T22:05:53.677Z,100122.75
2023-03-14T22:07:55.584Z,100125.50
2023-03-14T22:09:57.240Z,100134.13
2023-03-14T22:11:59.204Z,100141.41
2023-03-14T22:14:01.170Z,100141.28
2023-03-14T22:16:02.904Z,100135.97
2023-03-14T22:18:04.553Z,100137.41
2023-03-14T22:20:09.989Z,100136.81
2023-03-14T22:22:12.984Z,100147.56
2023-03-14T22:24:14.891Z,100156.41
2023-03-14T22:26:16.963Z,100157.97
2023-03-14T22:28:18.979Z,100158.78
2023-03-14T22:30:20.644Z,100154.97
2023-03-14T22:32:22.217Z,100158.19
2023-03-14T22:34:23.779Z,100160.56
2023-03-14T22:36:25.658Z,100163.25
2023-03-14T22:38:28.628Z,100159.19
2023-03-14T22:40:30.302Z,100161.31
2023-03-14T22:42:32.027Z,100171.00
2023-03-14T22:44:33.898Z,100172.09
2023-03-14T22:46:35.655Z,100170.78
2023-03-14T22:48:37.170Z,100181.81
2023-03-14T22:50:39.086Z,100184.53
2023-03-14T22:52:40.678Z,100187.72
2023-03-14T22:54:43.686Z,100193.91
2023-03-14T22:56:45.223Z,100201.41
2023-03-14T22:58:46.908Z,100206.53
2023-03-14T23:00:48.449Z,100201.94
2023-03-14T23:02:50.121Z,100207.31
2023-03-14T23:04:51.683Z,100215.97
2023-03-14T23:06:53.229Z,100213.78
2023-03-14T23:08:54.979Z,100215.66
2023-03-14T23:11:01.794Z,100222.38
2023-03-14T23:13:03.365Z,100225.63
2023-03-14T23:15:05.683Z,100231.53
2023-03-14T23:17:07.781Z,100230.19
2023-03-14T23:19:09.446Z,100239.66
2023-03-14T23:21:13.461Z,100252.81
2023-03-14T23:23:15.052Z,100248.25
2023-03-14T23:25:17.077Z,100253.34
2023-03-14T23:27:19.960Z,100256.03
2023-03-14T23:29:21.558Z,100252.84
2023-03-14T23:31:23.237Z,100257.69
2023-03-14T23:33:26.383Z,100259.56
2023-03-14T23:35:28.086Z,100268.47
2023-03-14T23:37:29.632Z,100261.47
2023-03-14T23:39:31.204Z,100264.16
2023-03-14T23:41:33.172Z,100275.22
2023-03-14T23:43:36.147Z,100270.63
2023-03-14T23:45:37.714Z,100275.22
2023-03-14T23:47:39.293Z,100281.38
2023-03-14T23:49:41.068Z,100281.38
2023-03-14T23:51:42.592Z,100289.50
2023-03-14T23:53:44.410Z,100293.25
2023-03-14T23:55:45.953Z,100297.00
2023-03-14T23:57:47.558Z,100299.41
2023-03-14T23:59:50.559Z,100295.66
